Huvudsida
METAR-TAF:

METAR-TAF

Flygplatser :

Bad Vöslau, Österrike

latitud: 47-57-52N, longitud: 016-15-34E, höjd: 233 m

Aktuellt väderrapport

Denna rapport gjordes för 1 timme och 20 minuter sedan, klockan 13:00 UTC
Vind 5 kt från syd/sydväst
Temperatur 14°C
Fuktighet 28%
Tryck
Sikt 10 km eller mer
Inga moln under 1 500 m eller inga cumulonimbus

METAR: LOAV 221300Z 20005KT CAVOK 14/M04

Tid: 15:20 (14:20 UTC)

Väderprognos

Denna rapport gjordes för 2 timmar och 55 minuter sedan, klockan 11:25 UTC
Prognos gäller från 22 kl. 12 UTC till 22 kl. 21 UTC
Vind 7 kt från sydväst
Sikt 10 km eller mer
Inga moln under 1 500 m eller inga cumulonimbus
Temporärt
från 22 kl. 12 UTC till 22 kl. 16 UTC
Vind 10 kt från syd

TAF: LOAV 221125Z 2212/2221 22007KT CAVOK TEMPO 2212/2216 17010KT

Aktuella väderrapporter och prognoser från 4000 flygplatser (METAR- och TAF-rapporter).

De tillgängliga stationerna syns som gula och röda prickar på kartan.

För musen över prickarna för att se namnen på stationerna.

Klicka sedan för att få väderrapporter och prognoser.

För att ändra kartan: Klicka på de gröna knapparna med ett svart kors på för att zooma in; den gröna knappen med ett streck på för att zooma ut; eller på de gröna pilarna för angränsande kartor.


METAR-TAF: